Time;durP1;ratioP1;P1;durP2;ratioP2;P2;SDS_P1;SDS_P2;PMS_P1;PMS_P2;Temp;Humidity;BMP_temperature;BMP_pressure;BME280_temperature;BME280_humidity;BME280_pressure;Samples;Min_cycle;Max_cycle;Signal;HPM_P1;HPM_P2
2024/01/08 00:00:12;;;;;;;10.50;5.03;;;;;;;;;;5041220;28;20040;-67
2024/01/08 00:02:37;;;;;;;8.55;4.65;;;;;;;;;;5051431;28;20029;-67
2024/01/08 00:05:03;;;;;;;7.65;4.30;;;;;;;;;;5048705;28;20481;-68
2024/01/08 00:07:28;;;;;;;10.55;5.05;;;;;;;;;;5041117;28;20036;-66
2024/01/08 00:09:53;;;;;;;8.60;4.45;;;;;;;;;;5042368;28;20088;-68
2024/01/08 00:12:19;;;;;;;8.27;4.80;;;;;;;;;;5050532;28;20033;-66
2024/01/08 00:14:44;;;;;;;7.80;4.32;;;;;;;;;;5053536;28;20063;-64
2024/01/08 00:17:09;;;;;;;8.57;4.93;;;;;;;;;;5053478;28;20066;-68
2024/01/08 00:19:35;;;;;;;10.05;4.53;;;;;;;;;;5048749;28;20122;-68
2024/01/08 00:22:00;;;;;;;10.13;5.10;;;;;;;;;;5052851;28;20037;-65
2024/01/08 00:24:26;;;;;;;8.88;4.60;;;;;;;;;;5054244;28;20361;-66
2024/01/08 00:26:51;;;;;;;7.53;4.47;;;;;;;;;;5052198;28;20029;-68
2024/01/08 00:29:16;;;;;;;7.10;4.40;;;;;;;;;;5036347;28;20070;-68
2024/01/08 00:31:42;;;;;;;8.25;4.45;;;;;;;;;;5053470;28;20450;-66
2024/01/08 00:34:08;;;;;;;8.60;4.88;;;;;;;;;;5052948;28;20040;-68
2024/01/08 00:36:36;;;;;;;9.30;4.22;;;;;;;;;;5036171;28;20035;-68
2024/01/08 00:39:02;;;;;;;7.47;4.18;;;;;;;;;;5054062;28;20151;-67
2024/01/08 00:41:27;;;;;;;8.52;4.95;;;;;;;;;;5052725;28;20513;-67
2024/01/08 00:43:53;;;;;;;6.90;3.95;;;;;;;;;;5052675;28;20551;-67
2024/01/08 00:46:18;;;;;;;10.45;4.95;;;;;;;;;;5052291;28;20110;-67
2024/01/08 00:48:44;;;;;;;8.07;4.32;;;;;;;;;;5052094;28;20073;-68
2024/01/08 00:51:09;;;;;;;7.32;4.57;;;;;;;;;;5052028;28;20045;-68
2024/01/08 00:53:35;;;;;;;8.18;4.60;;;;;;;;;;5052756;28;20480;-67
2024/01/08 00:56:00;;;;;;;9.73;4.40;;;;;;;;;;5037276;28;20040;-68
2024/01/08 00:58:26;;;;;;;9.55;4.97;;;;;;;;;;5035302;28;20065;-67
2024/01/08 01:00:51;;;;;;;7.18;4.30;;;;;;;;;;5052361;28;20044;-66
2024/01/08 01:03:16;;;;;;;10.15;5.15;;;;;;;;;;5054390;28;20039;-67
2024/01/08 01:05:42;;;;;;;9.38;4.88;;;;;;;;;;5053886;28;20370;-67
2024/01/08 01:08:07;;;;;;;9.73;4.75;;;;;;;;;;5053265;28;20656;-67
2024/01/08 01:10:33;;;;;;;9.35;4.55;;;;;;;;;;5054756;28;20116;-68
2024/01/08 01:12:58;;;;;;;9.15;4.75;;;;;;;;;;5050766;28;20032;-68
2024/01/08 01:15:23;;;;;;;9.55;4.50;;;;;;;;;;5052352;28;20432;-67
2024/01/08 01:17:49;;;;;;;8.98;4.68;;;;;;;;;;5043089;28;20033;-65
2024/01/08 01:20:14;;;;;;;9.55;4.47;;;;;;;;;;5051938;28;20117;-67
2024/01/08 01:22:39;;;;;;;9.70;4.95;;;;;;;;;;5053032;28;20075;-68
2024/01/08 01:25:05;;;;;;;8.55;4.63;;;;;;;;;;5052403;28;20440;-69
2024/01/08 01:27:30;;;;;;;9.25;4.80;;;;;;;;;;5052201;28;20033;-68
2024/01/08 01:29:56;;;;;;;9.35;4.90;;;;;;;;;;5053160;28;20052;-68
2024/01/08 01:32:21;;;;;;;9.60;4.68;;;;;;;;;;5050906;28;20401;-68
2024/01/08 01:34:47;;;;;;;9.68;4.75;;;;;;;;;;5044549;28;20037;-69
2024/01/08 01:37:12;;;;;;;9.00;5.10;;;;;;;;;;5045839;28;20492;-69
2024/01/08 01:39:37;;;;;;;9.63;4.50;;;;;;;;;;5033938;28;20029;-67
2024/01/08 01:42:03;;;;;;;9.05;4.50;;;;;;;;;;5049006;28;20045;-69
2024/01/08 01:44:28;;;;;;;8.73;4.50;;;;;;;;;;5036033;28;20060;-68
2024/01/08 01:46:55;;;;;;;8.25;4.55;;;;;;;;;;5048877;28;20033;-68
2024/01/08 01:49:23;;;;;;;8.45;4.63;;;;;;;;;;5044170;28;20044;-69
2024/01/08 01:51:49;;;;;;;8.90;4.50;;;;;;;;;;5052590;28;20040;-69
2024/01/08 01:54:17;;;;;;;9.02;4.53;;;;;;;;;;5032489;28;20041;-69
2024/01/08 01:56:46;;;;;;;6.75;4.07;;;;;;;;;;5052281;28;20033;-68
2024/01/08 01:59:11;;;;;;;9.75;4.80;;;;;;;;;;5050589;28;20024;-69
2024/01/08 02:01:37;;;;;;;10.30;4.45;;;;;;;;;;5033409;28;20116;-66
2024/01/08 02:04:03;;;;;;;8.63;4.65;;;;;;;;;;5048281;28;20461;-68
2024/01/08 02:06:29;;;;;;;7.90;4.15;;;;;;;;;;5052289;28;20112;-71
2024/01/08 02:08:55;;;;;;;8.13;4.32;;;;;;;;;;5031886;28;20056;-66
2024/01/08 02:11:21;;;;;;;9.73;4.68;;;;;;;;;;5051091;28;20064;-71
2024/01/08 02:13:47;;;;;;;9.45;4.72;;;;;;;;;;5034006;28;20055;-69
2024/01/08 02:16:13;;;;;;;7.57;4.18;;;;;;;;;;5050325;28;20241;-67
2024/01/08 02:18:38;;;;;;;8.75;4.50;;;;;;;;;;5051121;28;20546;-69
2024/01/08 02:21:04;;;;;;;8.30;4.50;;;;;;;;;;5049587;28;20412;-67
2024/01/08 02:23:29;;;;;;;9.70;4.57;;;;;;;;;;5043080;28;20460;-68
2024/01/08 02:25:55;;;;;;;11.23;5.18;;;;;;;;;;5049594;28;20039;-66
2024/01/08 02:28:20;;;;;;;11.65;4.93;;;;;;;;;;5052777;28;20376;-70
2024/01/08 02:30:46;;;;;;;8.48;4.65;;;;;;;;;;5050565;28;20033;-68
2024/01/08 02:33:11;;;;;;;9.30;4.72;;;;;;;;;;5041711;28;20557;-69
2024/01/08 02:35:37;;;;;;;9.60;4.80;;;;;;;;;;5046539;28;20037;-68
2024/01/08 02:38:03;;;;;;;9.02;4.70;;;;;;;;;;5044262;28;20377;-68
2024/01/08 02:40:28;;;;;;;9.73;4.80;;;;;;;;;;5050292;28;20041;-69
2024/01/08 02:42:53;;;;;;;9.50;4.88;;;;;;;;;;5050178;28;20489;-65
2024/01/08 02:45:19;;;;;;;9.85;5.00;;;;;;;;;;5052086;28;20037;-69
2024/01/08 02:47:44;;;;;;;9.85;4.88;;;;;;;;;;5033354;28;20124;-68
2024/01/08 02:50:10;;;;;;;9.25;5.07;;;;;;;;;;5050601;28;20056;-68
2024/01/08 02:52:36;;;;;;;10.15;4.72;;;;;;;;;;5051574;28;20033;-68
2024/01/08 02:55:02;;;;;;;9.95;4.63;;;;;;;;;;5049610;28;20033;-70
2024/01/08 02:57:28;;;;;;;11.05;4.65;;;;;;;;;;5051172;28;20481;-70
2024/01/08 02:59:57;;;;;;;9.50;4.97;;;;;;;;;;5049648;28;20079;-65
2024/01/08 03:02:24;;;;;;;9.27;5.10;;;;;;;;;;5033452;28;20461;-69
2024/01/08 03:04:49;;;;;;;9.57;5.15;;;;;;;;;;5042667;28;21182;-68
2024/01/08 03:07:20;;;;;;;9.30;5.20;;;;;;;;;;5049033;28;20062;-67
2024/01/08 03:09:46;;;;;;;9.07;5.03;;;;;;;;;;5049792;28;20052;-68
2024/01/08 03:12:14;;;;;;;8.93;5.10;;;;;;;;;;5049874;28;20039;-68
2024/01/08 03:14:39;;;;;;;9.05;5.00;;;;;;;;;;5050922;28;20020;-68
2024/01/08 03:17:05;;;;;;;9.55;5.35;;;;;;;;;;5050474;28;20373;-69
2024/01/08 03:19:31;;;;;;;9.10;5.05;;;;;;;;;;5050888;28;20393;-69
2024/01/08 03:21:56;;;;;;;11.88;5.65;;;;;;;;;;5050882;28;20037;-65
2024/01/08 03:24:21;;;;;;;10.77;5.25;;;;;;;;;;5050089;28;20079;-69
2024/01/08 03:26:47;;;;;;;10.13;5.50;;;;;;;;;;5050095;28;20040;-69
2024/01/08 03:29:13;;;;;;;9.63;5.40;;;;;;;;;;5048571;28;20087;-69
2024/01/08 03:31:45;;;;;;;11.15;5.35;;;;;;;;;;5035946;28;20029;-68
2024/01/08 03:34:12;;;;;;;12.50;5.03;;;;;;;;;;5052063;28;20025;-69
2024/01/08 03:36:37;;;;;;;10.60;5.22;;;;;;;;;;5053224;28;20033;-68
2024/01/08 03:39:03;;;;;;;13.15;5.70;;;;;;;;;;5048368;28;20036;-67
2024/01/08 03:41:28;;;;;;;9.60;5.43;;;;;;;;;;5058367;28;20101;-70
2024/01/08 03:43:53;;;;;;;9.43;5.43;;;;;;;;;;5061946;28;20530;-68
2024/01/08 03:46:19;;;;;;;10.60;5.95;;;;;;;;;;5056739;28;20040;-69
2024/01/08 03:48:44;;;;;;;11.82;5.80;;;;;;;;;;5052736;28;20460;-70
2024/01/08 03:51:10;;;;;;;11.25;5.53;;;;;;;;;;5051009;28;20112;-68
2024/01/08 03:53:35;;;;;;;11.82;6.13;;;;;;;;;;5051292;28;20381;-68
2024/01/08 03:56:01;;;;;;;11.48;5.78;;;;;;;;;;5050272;28;20104;-68
2024/01/08 03:58:27;;;;;;;13.98;6.22;;;;;;;;;;5030457;28;20071;-68
2024/01/08 04:00:53;;;;;;;12.27;6.00;;;;;;;;;;5050241;28;20465;-70
2024/01/08 04:03:19;;;;;;;11.02;5.60;;;;;;;;;;5030343;28;20025;-69
2024/01/08 04:05:44;;;;;;;9.93;5.45;;;;;;;;;;5049157;28;20029;-68
2024/01/08 04:08:10;;;;;;;12.88;6.18;;;;;;;;;;5047957;28;20449;-68
2024/01/08 04:10:35;;;;;;;12.52;5.70;;;;;;;;;;5050996;28;20445;-70
2024/01/08 04:13:00;;;;;;;11.85;6.18;;;;;;;;;;5050620;28;20041;-66
2024/01/08 04:15:26;;;;;;;12.35;6.32;;;;;;;;;;5050514;28;20029;-69
2024/01/08 04:17:51;;;;;;;10.50;6.15;;;;;;;;;;5051139;28;20033;-69
2024/01/08 04:20:17;;;;;;;12.38;6.50;;;;;;;;;;5050617;28;20372;-70
2024/01/08 04:22:45;;;;;;;13.88;6.05;;;;;;;;;;5050359;28;20025;-70
2024/01/08 04:25:10;;;;;;;12.00;6.28;;;;;;;;;;5048101;28;20033;-70
2024/01/08 04:27:36;;;;;;;10.25;5.55;;;;;;;;;;5049494;28;20036;-70
2024/01/08 04:30:02;;;;;;;12.77;6.43;;;;;;;;;;5051066;28;20037;-66
2024/01/08 04:32:28;;;;;;;12.02;6.30;;;;;;;;;;5035629;28;20076;-69
2024/01/08 04:34:53;;;;;;;14.60;6.55;;;;;;;;;;5051359;28;20036;-69
2024/01/08 04:37:18;;;;;;;12.55;6.13;;;;;;;;;;5032514;28;20162;-70
2024/01/08 04:39:44;;;;;;;10.70;6.43;;;;;;;;;;5051047;28;20029;-68
2024/01/08 04:42:09;;;;;;;13.32;7.10;;;;;;;;;;5049894;28;20056;-68
2024/01/08 04:44:35;;;;;;;14.07;6.65;;;;;;;;;;5051070;28;20029;-69
2024/01/08 04:47:00;;;;;;;14.38;6.55;;;;;;;;;;5050270;28;20029;-66
2024/01/08 04:49:25;;;;;;;11.02;6.00;;;;;;;;;;5032328;28;20041;-69
2024/01/08 04:51:51;;;;;;;13.98;7.15;;;;;;;;;;5051966;28;20071;-69
2024/01/08 04:54:16;;;;;;;14.30;7.18;;;;;;;;;;5053859;28;20528;-68
2024/01/08 04:56:42;;;;;;;15.55;7.35;;;;;;;;;;5036134;28;20091;-68
2024/01/08 04:59:08;;;;;;;13.57;6.85;;;;;;;;;;5052110;28;20104;-69
2024/01/08 05:01:37;;;;;;;13.95;7.63;;;;;;;;;;5053604;28;20120;-69
2024/01/08 05:04:03;;;;;;;14.68;7.53;;;;;;;;;;5052655;28;20401;-65
2024/01/08 05:06:29;;;;;;;16.48;7.05;;;;;;;;;;5053646;28;20037;-69
2024/01/08 05:08:54;;;;;;;15.52;7.45;;;;;;;;;;5052378;28;20033;-69
2024/01/08 05:11:20;;;;;;;14.38;7.80;;;;;;;;;;5033117;28;20021;-69
2024/01/08 05:13:45;;;;;;;14.13;6.85;;;;;;;;;;5052969;28;20059;-69
2024/01/08 05:16:10;;;;;;;13.43;7.35;;;;;;;;;;5034034;28;20040;-69
2024/01/08 05:18:36;;;;;;;15.93;7.13;;;;;;;;;;5035197;28;20120;-69
2024/01/08 05:21:03;;;;;;;21.95;8.70;;;;;;;;;;5035532;28;20041;-65
2024/01/08 05:23:29;;;;;;;18.20;7.22;;;;;;;;;;5051533;28;20045;-69
2024/01/08 05:25:58;;;;;;;14.40;7.10;;;;;;;;;;5034245;28;20040;-69
2024/01/08 05:28:25;;;;;;;15.77;7.20;;;;;;;;;;5035358;28;20017;-69
2024/01/08 05:30:50;;;;;;;15.85;7.85;;;;;;;;;;5052395;28;20159;-69
2024/01/08 05:33:15;;;;;;;15.25;7.18;;;;;;;;;;5052984;28;20108;-69
2024/01/08 05:35:41;;;;;;;17.23;7.65;;;;;;;;;;5035776;28;20037;-69
2024/01/08 05:38:06;;;;;;;15.05;7.75;;;;;;;;;;5053241;28;20036;-65
2024/01/08 05:40:32;;;;;;;14.90;7.45;;;;;;;;;;5053943;28;20480;-69
2024/01/08 05:42:57;;;;;;;12.40;6.63;;;;;;;;;;5054169;28;20059;-68
2024/01/08 05:45:23;;;;;;;15.38;8.20;;;;;;;;;;5052422;28;20048;-69
2024/01/08 05:47:50;;;;;;;16.15;7.72;;;;;;;;;;5053634;28;20428;-67
2024/01/08 05:50:16;;;;;;;14.15;7.35;;;;;;;;;;5053053;28;20511;-69
2024/01/08 05:52:45;;;;;;;13.10;7.00;;;;;;;;;;5053574;28;20055;-68
2024/01/08 05:55:14;;;;;;;14.80;7.00;;;;;;;;;;5052423;28;20025;-69
2024/01/08 05:57:39;;;;;;;12.95;6.72;;;;;;;;;;5035183;28;20354;-69
2024/01/08 06:00:06;;;;;;;12.40;6.93;;;;;;;;;;5052988;28;20059;-66
2024/01/08 06:02:31;;;;;;;12.43;6.97;;;;;;;;;;5053466;28;20025;-70
2024/01/08 06:04:57;;;;;;;13.48;6.88;;;;;;;;;;5052654;28;20366;-69
2024/01/08 06:07:22;;;;;;;10.57;6.45;;;;;;;;;;5034712;28;20385;-69
2024/01/08 06:09:47;;;;;;;11.50;6.40;;;;;;;;;;5052874;28;20152;-69
2024/01/08 06:12:13;;;;;;;12.23;6.53;;;;;;;;;;5052065;28;20424;-67
2024/01/08 06:14:41;;;;;;;11.93;6.32;;;;;;;;;;5052289;28;20044;-69
2024/01/08 06:17:08;;;;;;;12.77;6.30;;;;;;;;;;5039160;28;20385;-66
2024/01/08 06:19:34;;;;;;;13.05;6.60;;;;;;;;;;5033331;28;20034;-66
2024/01/08 06:21:59;;;;;;;14.07;6.93;;;;;;;;;;5053033;28;20036;-70
2024/01/08 06:24:24;;;;;;;15.75;6.15;;;;;;;;;;5046824;28;20021;-70
2024/01/08 06:26:50;;;;;;;11.23;6.32;;;;;;;;;;5053071;28;20036;-69
2024/01/08 06:29:16;;;;;;;12.23;6.57;;;;;;;;;;5051991;28;20115;-67
2024/01/08 06:31:41;;;;;;;14.00;6.53;;;;;;;;;;5034313;28;20112;-67
2024/01/08 06:34:07;;;;;;;12.77;6.63;;;;;;;;;;5051196;28;20132;-63
2024/01/08 06:36:34;;;;;;;12.80;6.90;;;;;;;;;;5051641;28;20045;-63
2024/01/08 06:39:00;;;;;;;14.27;7.03;;;;;;;;;;5051185;28;20067;-64
2024/01/08 06:41:25;;;;;;;13.57;6.65;;;;;;;;;;5051269;28;20069;-65
2024/01/08 06:43:50;;;;;;;12.75;6.80;;;;;;;;;;5052682;28;20378;-65
2024/01/08 06:46:17;;;;;;;13.60;7.07;;;;;;;;;;5051599;28;20489;-65
2024/01/08 06:48:43;;;;;;;13.05;6.55;;;;;;;;;;5052488;28;20215;-65
2024/01/08 06:51:08;;;;;;;13.73;6.93;;;;;;;;;;5052034;28;20056;-65
2024/01/08 06:53:34;;;;;;;15.30;6.68;;;;;;;;;;5052082;28;20032;-63
2024/01/08 06:55:59;;;;;;;11.00;6.60;;;;;;;;;;5052658;28;20342;-65
2024/01/08 06:58:25;;;;;;;10.98;5.93;;;;;;;;;;5051615;28;20040;-65
2024/01/08 07:00:50;;;;;;;12.40;6.80;;;;;;;;;;5051455;28;20472;-64
2024/01/08 07:03:17;;;;;;;13.32;6.75;;;;;;;;;;5049431;28;20029;-63
2024/01/08 07:05:42;;;;;;;10.55;5.70;;;;;;;;;;5051583;28;20104;-66
2024/01/08 07:08:08;;;;;;;11.65;5.95;;;;;;;;;;5051617;28;20112;-64
2024/01/08 07:10:36;;;;;;;10.77;6.07;;;;;;;;;;5050654;28;20150;-64
2024/01/08 07:13:02;;;;;;;11.45;6.47;;;;;;;;;;5051487;28;20033;-64
2024/01/08 07:15:40;;;;;;;12.98;6.88;;;;;;;;;;5049911;28;20109;-64
2024/01/08 07:18:10;;;;;;;12.23;6.40;;;;;;;;;;5051631;28;20496;-63
2024/01/08 07:20:37;;;;;;;12.65;6.40;;;;;;;;;;5051664;28;20033;-63
2024/01/08 07:23:06;;;;;;;10.57;6.13;;;;;;;;;;5051891;28;20115;-64
2024/01/08 07:25:35;;;;;;;10.27;5.55;;;;;;;;;;5050535;28;20076;-64
2024/01/08 07:28:00;;;;;;;11.75;5.53;;;;;;;;;;5051148;28;20426;-64
2024/01/08 07:30:26;;;;;;;11.02;5.85;;;;;;;;;;5050944;28;20041;-65
2024/01/08 07:32:51;;;;;;;11.90;6.20;;;;;;;;;;5051956;28;20033;-63
2024/01/08 07:35:17;;;;;;;11.98;6.22;;;;;;;;;;5050641;28;20032;-64
2024/01/08 07:37:42;;;;;;;11.63;6.07;;;;;;;;;;5051340;28;20056;-64
2024/01/08 07:40:08;;;;;;;10.25;6.32;;;;;;;;;;5051624;28;20373;-64
2024/01/08 07:42:33;;;;;;;12.13;5.85;;;;;;;;;;5050385;28;20508;-63
2024/01/08 07:45:00;;;;;;;10.65;5.93;;;;;;;;;;5051534;28;20028;-63
2024/01/08 07:47:26;;;;;;;11.77;6.32;;;;;;;;;;5050783;28;20021;-64
2024/01/08 07:49:51;;;;;;;12.45;6.22;;;;;;;;;;5051704;28;20039;-64
2024/01/08 07:52:16;;;;;;;11.60;5.97;;;;;;;;;;5049706;28;20420;-64
2024/01/08 07:54:42;;;;;;;11.07;5.80;;;;;;;;;;5051248;28;20079;-62
2024/01/08 07:57:07;;;;;;;11.20;5.82;;;;;;;;;;5049505;28;20095;-65
2024/01/08 07:59:32;;;;;;;12.25;6.35;;;;;;;;;;5039424;28;20037;-65
2024/01/08 08:01:58;;;;;;;13.90;7.00;;;;;;;;;;5034499;28;20071;-64
2024/01/08 08:04:23;;;;;;;12.32;6.32;;;;;;;;;;5050424;28;20029;-65
2024/01/08 08:06:48;;;;;;;14.45;7.10;;;;;;;;;;5051922;28;20037;-64
2024/01/08 08:09:14;;;;;;;13.45;6.70;;;;;;;;;;5041584;28;20060;-65
2024/01/08 08:11:39;;;;;;;13.25;7.28;;;;;;;;;;5032681;28;20041;-65
2024/01/08 08:14:05;;;;;;;15.45;7.30;;;;;;;;;;5034139;28;20116;-65
2024/01/08 08:16:30;;;;;;;10.45;6.22;;;;;;;;;;5050456;28;20090;-63
2024/01/08 08:18:56;;;;;;;13.25;7.55;;;;;;;;;;5051357;28;20465;-64
2024/01/08 08:21:21;;;;;;;13.85;7.05;;;;;;;;;;5050377;28;20032;-64
2024/01/08 08:23:47;;;;;;;14.80;7.20;;;;;;;;;;5051092;28;20526;-63
2024/01/08 08:26:12;;;;;;;12.85;7.40;;;;;;;;;;5050539;28;20420;-64
2024/01/08 08:28:38;;;;;;;13.77;7.18;;;;;;;;;;5054714;28;20021;-62
2024/01/08 08:31:03;;;;;;;13.88;7.03;;;;;;;;;;5055156;28;20404;-62
2024/01/08 08:33:29;;;;;;;13.73;6.60;;;;;;;;;;5053843;28;20481;-63
2024/01/08 08:35:54;;;;;;;11.20;5.78;;;;;;;;;;5054382;28;20056;-65
2024/01/08 08:38:19;;;;;;;12.27;5.53;;;;;;;;;;5052508;28;20044;-63
2024/01/08 08:40:45;;;;;;;7.40;3.90;;;;;;;;;;5036886;28;20369;-65
2024/01/08 08:43:10;;;;;;;8.25;4.13;;;;;;;;;;5054347;28;20393;-62
2024/01/08 08:45:37;;;;;;;9.52;4.38;;;;;;;;;;5054373;28;20086;-62
2024/01/08 08:48:03;;;;;;;8.55;4.15;;;;;;;;;;5036954;28;20419;-63
2024/01/08 08:50:28;;;;;;;6.97;4.22;;;;;;;;;;5045406;28;20080;-63
2024/01/08 08:52:54;;;;;;;8.23;4.20;;;;;;;;;;5035075;28;20073;-63
2024/01/08 08:55:19;;;;;;;6.45;3.60;;;;;;;;;;5042173;28;20714;-64
2024/01/08 08:57:45;;;;;;;6.70;3.85;;;;;;;;;;5054521;28;20029;-63
2024/01/08 09:00:10;;;;;;;7.38;4.05;;;;;;;;;;5054090;28;20029;-64
2024/01/08 09:02:36;;;;;;;7.10;3.65;;;;;;;;;;5053969;28;20029;-62
2024/01/08 09:05:03;;;;;;;6.78;3.90;;;;;;;;;;5054290;28;20064;-62
2024/01/08 09:07:28;;;;;;;8.50;3.92;;;;;;;;;;5035199;28;20033;-64
2024/01/08 09:09:54;;;;;;;8.13;4.22;;;;;;;;;;5053804;28;20040;-63
2024/01/08 09:12:19;;;;;;;7.65;4.28;;;;;;;;;;5052885;28;20025;-65
2024/01/08 09:14:45;;;;;;;9.25;4.25;;;;;;;;;;5053777;28;20065;-64
2024/01/08 09:17:10;;;;;;;6.22;4.00;;;;;;;;;;5054184;28;20051;-63
2024/01/08 09:19:37;;;;;;;8.43;4.13;;;;;;;;;;5052668;28;20037;-64
2024/01/08 09:22:03;;;;;;;8.07;4.38;;;;;;;;;;5053762;28;20033;-63
2024/01/08 09:24:29;;;;;;;9.23;4.15;;;;;;;;;;5053340;28;20044;-62
2024/01/08 09:26:55;;;;;;;8.18;4.43;;;;;;;;;;5053176;28;20372;-64
2024/01/08 09:29:20;;;;;;;6.82;4.25;;;;;;;;;;5052968;28;20036;-63
2024/01/08 09:31:46;;;;;;;8.43;4.40;;;;;;;;;;5046275;28;20026;-63
2024/01/08 09:34:12;;;;;;;7.72;4.15;;;;;;;;;;5053577;28;20033;-63
2024/01/08 09:36:37;;;;;;;7.10;4.07;;;;;;;;;;5052933;28;20025;-63
2024/01/08 09:39:03;;;;;;;6.85;3.90;;;;;;;;;;5048291;28;20389;-63
2024/01/08 09:41:28;;;;;;;7.10;4.13;;;;;;;;;;5052042;28;20140;-63
2024/01/08 09:43:56;;;;;;;6.55;4.30;;;;;;;;;;5053858;28;20450;-63
2024/01/08 09:46:26;;;;;;;7.15;4.20;;;;;;;;;;5052001;28;20029;-63
2024/01/08 09:48:54;;;;;;;6.28;4.25;;;;;;;;;;5053339;28;20067;-61
2024/01/08 09:51:20;;;;;;;6.70;4.20;;;;;;;;;;5052723;28;20468;-63
2024/01/08 09:53:45;;;;;;;6.85;4.13;;;;;;;;;;5053347;28;20143;-62
2024/01/08 09:56:13;;;;;;;7.53;4.68;;;;;;;;;;5041703;28;20033;-62
2024/01/08 09:58:38;;;;;;;5.70;4.15;;;;;;;;;;5033139;28;20034;-63
2024/01/08 10:01:04;;;;;;;6.85;4.88;;;;;;;;;;5033495;28;20025;-62
2024/01/08 10:03:30;;;;;;;7.15;4.80;;;;;;;;;;5031552;28;20065;-62
2024/01/08 10:05:56;;;;;;;7.78;4.80;;;;;;;;;;5037819;28;20036;-62
2024/01/08 10:08:21;;;;;;;8.18;5.43;;;;;;;;;;5052423;28;20040;-62
2024/01/08 10:10:47;;;;;;;9.32;5.55;;;;;;;;;;5053011;28;20029;-62
2024/01/08 10:13:14;;;;;;;6.35;4.97;;;;;;;;;;5053168;28;20033;-63
2024/01/08 10:15:45;;;;;;;6.88;5.00;;;;;;;;;;5051884;28;20060;-61
2024/01/08 10:18:14;;;;;;;6.85;5.90;;;;;;;;;;5053486;28;20036;-63
2024/01/08 10:20:42;;;;;;;6.97;5.63;;;;;;;;;;5052190;28;20110;-62
2024/01/08 10:23:08;;;;;;;6.53;5.70;;;;;;;;;;5052766;28;20028;-63
2024/01/08 10:25:35;;;;;;;7.95;5.65;;;;;;;;;;5051712;28;20032;-64
2024/01/08 10:28:01;;;;;;;7.07;6.30;;;;;;;;;;5050728;28;20029;-66
2024/01/08 10:30:26;;;;;;;6.95;5.95;;;;;;;;;;5048230;28;20373;-67
2024/01/08 10:32:51;;;;;;;7.70;6.43;;;;;;;;;;5052648;28;20416;-68
2024/01/08 10:35:18;;;;;;;7.13;6.38;;;;;;;;;;5036634;28;20473;-63
2024/01/08 10:37:47;;;;;;;8.35;6.65;;;;;;;;;;5051989;28;20025;-63
2024/01/08 10:40:13;;;;;;;8.20;7.15;;;;;;;;;;5052367;28;20036;-63
2024/01/08 10:42:41;;;;;;;8.57;7.10;;;;;;;;;;5051510;28;20048;-62
2024/01/08 10:45:07;;;;;;;7.85;7.05;;;;;;;;;;5051204;28;20434;-62
2024/01/08 10:47:35;;;;;;;8.00;7.20;;;;;;;;;;5051601;28;20112;-62
2024/01/08 10:50:03;;;;;;;7.53;6.78;;;;;;;;;;5045820;28;20037;-62
2024/01/08 10:52:30;;;;;;;8.82;7.40;;;;;;;;;;5031614;28;20025;-63
2024/01/08 10:55:00;;;;;;;8.68;7.10;;;;;;;;;;5045504;28;20040;-62
2024/01/08 10:57:58;;;;;;;10.00;7.30;;;;;;;;;;5049940;28;20039;-64
2024/01/08 11:00:24;;;;;;;9.50;7.35;;;;;;;;;;5050702;28;20112;-63
2024/01/08 11:02:51;;;;;;;8.50;7.70;;;;;;;;;;5048336;28;20078;-64
2024/01/08 11:05:19;;;;;;;8.80;7.60;;;;;;;;;;5049587;28;20032;-64
2024/01/08 11:07:47;;;;;;;8.93;7.95;;;;;;;;;;5049295;28;20090;-64
2024/01/08 11:10:15;;;;;;;8.77;7.93;;;;;;;;;;5032260;28;20029;-63
2024/01/08 11:12:41;;;;;;;9.82;8.02;;;;;;;;;;5051093;28;20035;-63
2024/01/08 11:15:07;;;;;;;9.02;8.23;;;;;;;;;;5051016;28;20186;-65
2024/01/08 11:17:34;;;;;;;10.23;9.18;;;;;;;;;;5046290;28;20033;-64
2024/01/08 11:19:59;;;;;;;10.13;9.10;;;;;;;;;;5039417;28;20116;-64
2024/01/08 11:22:25;;;;;;;10.20;9.20;;;;;;;;;;5031027;28;20152;-64
2024/01/08 11:24:57;;;;;;;10.00;9.07;;;;;;;;;;5047120;28;20484;-64
2024/01/08 11:27:23;;;;;;;11.02;9.93;;;;;;;;;;5049903;28;20385;-64
2024/01/08 11:30:00;;;;;;;10.98;9.88;;;;;;;;;;5027776;28;20461;-65
2024/01/08 11:33:13;;;;;;;10.25;9.35;;;;;;;;;;5050931;28;20083;-64
2024/01/08 11:35:44;;;;;;;11.32;10.13;;;;;;;;;;5033311;28;20079;-65
2024/01/08 11:38:22;;;;;;;11.15;10.07;;;;;;;;;;5051803;28;20035;-63
2024/01/08 11:40:48;;;;;;;11.40;10.30;;;;;;;;;;5051508;28;20029;-63
2024/01/08 11:43:14;;;;;;;11.50;10.40;;;;;;;;;;5051314;28;20032;-66
2024/01/08 11:45:39;;;;;;;11.32;10.23;;;;;;;;;;5050461;28;20064;-64
2024/01/08 11:48:06;;;;;;;11.82;10.68;;;;;;;;;;5051303;28;20029;-65
2024/01/08 11:50:32;;;;;;;11.80;10.70;;;;;;;;;;5049254;28;20042;-65
2024/01/08 11:53:00;;;;;;;13.15;10.70;;;;;;;;;;5031505;28;20038;-63
2024/01/08 11:55:27;;;;;;;11.48;10.40;;;;;;;;;;5041271;28;20039;-64
2024/01/08 11:57:53;;;;;;;11.73;10.63;;;;;;;;;;5042469;28;20025;-64
2024/01/08 12:00:19;;;;;;;11.70;10.60;;;;;;;;;;5048077;28;20071;-63
2024/01/08 12:02:46;;;;;;;11.90;10.70;;;;;;;;;;5045870;28;20465;-63
2024/01/08 12:05:12;;;;;;;11.95;10.85;;;;;;;;;;5055640;28;20111;-62
2024/01/08 12:07:38;;;;;;;12.13;10.82;;;;;;;;;;5054415;28;20104;-63
2024/01/08 12:10:06;;;;;;;11.40;10.40;;;;;;;;;;5055371;28;20029;-63
2024/01/08 12:12:31;;;;;;;11.80;10.70;;;;;;;;;;5054523;28;20529;-62
2024/01/08 12:14:56;;;;;;;12.02;10.82;;;;;;;;;;5054904;28;20112;-62
2024/01/08 12:17:22;;;;;;;12.07;10.88;;;;;;;;;;5054440;28;20114;-64
2024/01/08 12:19:49;;;;;;;11.95;10.85;;;;;;;;;;5045830;28;20116;-63
2024/01/08 12:22:16;;;;;;;12.10;11.00;;;;;;;;;;5039165;28;20032;-61
2024/01/08 12:24:45;;;;;;;14.55;10.98;;;;;;;;;;5054956;28;20450;-64
2024/01/08 12:27:12;;;;;;;12.15;10.95;;;;;;;;;;5054779;28;20544;-64
2024/01/08 12:29:41;;;;;;;12.13;11.02;;;;;;;;;;5053974;28;20037;-63
2024/01/08 12:32:09;;;;;;;12.20;11.02;;;;;;;;;;5054523;28;20440;-63
2024/01/08 12:34:39;;;;;;;12.38;11.18;;;;;;;;;;5054102;28;20033;-63
2024/01/08 12:37:06;;;;;;;13.07;11.63;;;;;;;;;;5055135;28;20029;-64
2024/01/08 12:39:35;;;;;;;12.27;11.07;;;;;;;;;;5054330;28;20568;-63
2024/01/08 12:42:04;;;;;;;12.25;11.05;;;;;;;;;;5056255;28;20049;-62
2024/01/08 12:44:31;;;;;;;13.43;12.13;;;;;;;;;;5057233;28;20044;-62
2024/01/08 12:46:57;;;;;;;12.73;11.27;;;;;;;;;;5057874;28;20551;-63
2024/01/08 12:49:23;;;;;;;12.57;11.30;;;;;;;;;;5055112;28;20045;-64
2024/01/08 12:51:50;;;;;;;12.60;11.40;;;;;;;;;;5053469;28;20032;-64
2024/01/08 12:54:16;;;;;;;12.13;10.93;;;;;;;;;;5050432;28;20026;-68
2024/01/08 12:56:42;;;;;;;13.45;11.73;;;;;;;;;;5016301;28;20492;-63
2024/01/08 12:59:11;;;;;;;12.75;11.45;;;;;;;;;;5052638;28;20040;-63
2024/01/08 13:01:36;;;;;;;12.43;11.20;;;;;;;;;;5053178;28;20044;-63
2024/01/08 13:04:02;;;;;;;12.38;11.18;;;;;;;;;;5054380;28;20029;-64
2024/01/08 13:06:27;;;;;;;12.32;11.13;;;;;;;;;;5053240;28;20025;-63
2024/01/08 13:08:53;;;;;;;14.68;11.50;;;;;;;;;;5054002;28;20025;-62
2024/01/08 13:11:19;;;;;;;12.48;11.30;;;;;;;;;;5040467;28;20025;-62
2024/01/08 13:13:45;;;;;;;12.80;11.50;;;;;;;;;;5051876;28;20033;-63
2024/01/08 13:16:11;;;;;;;12.40;11.27;;;;;;;;;;5052934;28;20075;-62
2024/01/08 13:18:36;;;;;;;12.80;11.45;;;;;;;;;;5035293;28;20086;-62
2024/01/08 13:21:02;;;;;;;12.73;11.45;;;;;;;;;;5054042;28;20373;-63
2024/01/08 13:23:28;;;;;;;13.32;12.02;;;;;;;;;;5053049;28;20025;-63
2024/01/08 13:25:54;;;;;;;12.65;11.45;;;;;;;;;;5036165;28;20112;-63
2024/01/08 13:28:19;;;;;;;12.73;11.32;;;;;;;;;;5054049;28;20047;-63
2024/01/08 13:30:44;;;;;;;12.70;11.50;;;;;;;;;;5052875;28;20456;-63
2024/01/08 13:33:10;;;;;;;13.15;11.88;;;;;;;;;;5053127;28;20048;-64
2024/01/08 13:35:35;;;;;;;12.95;11.65;;;;;;;;;;5052499;28;20029;-63
2024/01/08 13:38:02;;;;;;;12.73;11.45;;;;;;;;;;5053365;28;20029;-61
2024/01/08 13:40:28;;;;;;;12.43;11.25;;;;;;;;;;5053033;28;20033;-63
2024/01/08 13:42:54;;;;;;;12.27;11.07;;;;;;;;;;5053685;28;20049;-63
2024/01/08 13:45:20;;;;;;;12.68;11.48;;;;;;;;;;5052997;28;20048;-63
2024/01/08 13:47:49;;;;;;;12.60;11.40;;;;;;;;;;5053573;28;20036;-63
2024/01/08 13:50:18;;;;;;;13.55;12.10;;;;;;;;;;5053331;28;20041;-63
2024/01/08 13:52:44;;;;;;;12.77;11.52;;;;;;;;;;5037654;28;20114;-63
2024/01/08 13:55:10;;;;;;;12.90;11.70;;;;;;;;;;5035908;28;20492;-62
2024/01/08 13:57:39;;;;;;;12.73;11.60;;;;;;;;;;5052225;28;20029;-63
2024/01/08 14:00:06;;;;;;;13.77;12.32;;;;;;;;;;5053503;28;20033;-62
2024/01/08 14:02:35;;;;;;;12.85;11.57;;;;;;;;;;5052646;28;20029;-62
2024/01/08 14:05:01;;;;;;;12.93;11.73;;;;;;;;;;5034121;28;20172;-62
2024/01/08 14:07:26;;;;;;;13.23;11.88;;;;;;;;;;5051697;28;20513;-63
2024/01/08 14:09:51;;;;;;;13.25;11.95;;;;;;;;;;5052900;28;20112;-62
2024/01/08 14:12:17;;;;;;;12.88;11.68;;;;;;;;;;5039567;28;20127;-62
2024/01/08 14:14:43;;;;;;;12.85;11.65;;;;;;;;;;5052380;28;20626;-62
2024/01/08 14:17:08;;;;;;;13.23;12.00;;;;;;;;;;5052370;28;20108;-62
2024/01/08 14:19:35;;;;;;;13.02;11.82;;;;;;;;;;5052074;28;20032;-63
2024/01/08 14:22:00;;;;;;;13.25;11.95;;;;;;;;;;5035161;28;20029;-62
2024/01/08 14:24:26;;;;;;;13.30;11.95;;;;;;;;;;5049342;28;20102;-63
2024/01/08 14:26:51;;;;;;;14.13;12.00;;;;;;;;;;5033284;28;20087;-63